sensor_id;sensor_type;location;lat;lon;timestamp;pressure;altitude;pressure_sealevel;temperature;humidity
61318;BME280;47201;40.428;-8.436;2022-09-30T00:00:51;100546.84;;;12.14;100.00
61318;BME280;47201;40.428;-8.436;2022-09-30T00:02:51;100541.63;;;12.11;100.00
61318;BME280;47201;40.428;-8.436;2022-09-30T00:04:52;100545.16;;;12.08;100.00
61318;BME280;47201;40.428;-8.436;2022-09-30T00:06:53;100546.88;;;12.11;100.00
61318;BME280;47201;40.428;-8.436;2022-09-30T00:08:54;100543.41;;;12.09;100.00
61318;BME280;47201;40.428;-8.436;2022-09-30T00:11:07;100525.13;;;12.04;100.00
61318;BME280;47201;40.428;-8.436;2022-09-30T00:13:08;100522.56;;;11.98;100.00
61318;BME280;47201;40.428;-8.436;2022-09-30T00:15:09;100526.09;;;11.90;100.00
61318;BME280;47201;40.428;-8.436;2022-09-30T00:17:10;100515.63;;;11.87;100.00
61318;BME280;47201;40.428;-8.436;2022-09-30T00:19:11;100527.88;;;11.88;100.00
61318;BME280;47201;40.428;-8.436;2022-09-30T00:21:12;100529.59;;;11.88;100.00
61318;BME280;47201;40.428;-8.436;2022-09-30T00:23:15;100531.41;;;11.81;100.00
61318;BME280;47201;40.428;-8.436;2022-09-30T00:25:16;100546.28;;;11.79;100.00
61318;BME280;47201;40.428;-8.436;2022-09-30T00:27:16;100555.03;;;11.77;100.00
61318;BME280;47201;40.428;-8.436;2022-09-30T00:29:17;100550.72;;;11.72;100.00
61318;BME280;47201;40.428;-8.436;2022-09-30T00:31:19;100546.34;;;11.70;100.00
61318;BME280;47201;40.428;-8.436;2022-09-30T00:33:23;100553.31;;;11.71;100.00
61318;BME280;47201;40.428;-8.436;2022-09-30T00:35:24;100550.69;;;11.74;100.00
61318;BME280;47201;40.428;-8.436;2022-09-30T00:37:24;100558.56;;;11.72;100.00
61318;BME280;47201;40.428;-8.436;2022-09-30T00:39:27;100550.75;;;11.68;100.00
61318;BME280;47201;40.428;-8.436;2022-09-30T00:41:28;100558.63;;;11.62;100.00
61318;BME280;47201;40.428;-8.436;2022-09-30T00:43:41;100556.03;;;11.60;100.00
61318;BME280;47201;40.428;-8.436;2022-09-30T00:45:56;100560.44;;;11.55;100.00
61318;BME280;47201;40.428;-8.436;2022-09-30T00:48:07;100558.72;;;11.54;100.00
61318;BME280;47201;40.428;-8.436;2022-09-30T00:50:33;100554.28;;;11.62;100.00
61318;BME280;47201;40.428;-8.436;2022-09-30T00:52:34;100557.75;;;11.66;100.00
61318;BME280;47201;40.428;-8.436;2022-09-30T00:54:35;100561.25;;;11.65;100.00
61318;BME280;47201;40.428;-8.436;2022-09-30T00:56:40;100554.31;;;11.61;100.00
61318;BME280;47201;40.428;-8.436;2022-09-30T00:58:49;100556.00;;;11.62;100.00
61318;BME280;47201;40.428;-8.436;2022-09-30T01:00:51;100561.28;;;11.58;100.00
61318;BME280;47201;40.428;-8.436;2022-09-30T01:02:53;100559.53;;;11.59;100.00
61318;BME280;47201;40.428;-8.436;2022-09-30T01:04:54;100566.56;;;11.57;100.00
61318;BME280;47201;40.428;-8.436;2022-09-30T01:06:59;100569.97;;;11.64;100.00
61318;BME280;47201;40.428;-8.436;2022-09-30T01:09:01;100571.63;;;11.75;100.00
61318;BME280;47201;40.428;-8.436;2022-09-30T01:11:02;100570.00;;;11.61;100.00
61318;BME280;47201;40.428;-8.436;2022-09-30T01:13:04;100567.47;;;11.48;100.00
61318;BME280;47201;40.428;-8.436;2022-09-30T01:15:05;100573.69;;;11.35;100.00
61318;BME280;47201;40.428;-8.436;2022-09-30T01:17:10;100579.78;;;11.34;100.00
61318;BME280;47201;40.428;-8.436;2022-09-30T01:19:25;100572.00;;;11.27;100.00
61318;BME280;47201;40.428;-8.436;2022-09-30T01:21:53;100567.66;;;11.23;100.00
61318;BME280;47201;40.428;-8.436;2022-09-30T01:26:45;100566.78;;;11.23;100.00
61318;BME280;47201;40.428;-8.436;2022-09-30T01:40:25;100559.59;;;11.51;100.00
61318;BME280;47201;40.428;-8.436;2022-09-30T01:42:52;100560.63;;;11.32;100.00
61318;BME280;47201;40.428;-8.436;2022-09-30T01:44:58;100569.41;;;11.18;100.00
61318;BME280;47201;40.428;-8.436;2022-09-30T01:51:57;100557.28;;;11.08;100.00
61318;BME280;47201;40.428;-8.436;2022-09-30T01:54:39;100559.94;;;11.03;100.00
61318;BME280;47201;40.428;-8.436;2022-09-30T01:56:52;100555.56;;;11.04;100.00
61318;BME280;47201;40.428;-8.436;2022-09-30T01:59:02;100563.41;;;11.07;100.00
61318;BME280;47201;40.428;-8.436;2022-09-30T02:01:09;100564.28;;;11.09;100.00
61318;BME280;47201;40.428;-8.436;2022-09-30T02:03:18;100564.25;;;11.10;100.00
61318;BME280;47201;40.428;-8.436;2022-09-30T02:07:30;100571.19;;;11.15;100.00
61318;BME280;47201;40.428;-8.436;2022-09-30T02:09:37;100571.19;;;11.18;100.00
61318;BME280;47201;40.428;-8.436;2022-09-30T02:11:40;100558.97;;;11.17;100.00
61318;BME280;47201;40.428;-8.436;2022-09-30T02:13:52;100552.91;;;11.13;100.00
61318;BME280;47201;40.428;-8.436;2022-09-30T02:15:57;100547.69;;;11.07;100.00
61318;BME280;47201;40.428;-8.436;2022-09-30T02:20:16;100537.31;;;10.94;100.00
61318;BME280;47201;40.428;-8.436;2022-09-30T02:22:27;100540.78;;;10.97;100.00
61318;BME280;47201;40.428;-8.436;2022-09-30T02:24:33;100533.81;;;10.97;100.00
61318;BME280;47201;40.428;-8.436;2022-09-30T02:26:39;100542.56;;;10.94;100.00
61318;BME280;47201;40.428;-8.436;2022-09-30T02:28:45;100540.81;;;10.87;100.00
61318;BME280;47201;40.428;-8.436;2022-09-30T02:30:50;100539.97;;;10.87;100.00
61318;BME280;47201;40.428;-8.436;2022-09-30T02:32:57;100542.59;;;10.87;100.00
61318;BME280;47201;40.428;-8.436;2022-09-30T02:35:02;100541.72;;;10.83;100.00
61318;BME280;47201;40.428;-8.436;2022-09-30T02:37:32;100545.28;;;10.70;100.00
61318;BME280;47201;40.428;-8.436;2022-09-30T02:39:41;100557.53;;;10.61;100.00
61318;BME280;47201;40.428;-8.436;2022-09-30T02:41:47;100556.69;;;10.50;100.00
61318;BME280;47201;40.428;-8.436;2022-09-30T02:43:49;100552.38;;;10.40;100.00
61318;BME280;47201;40.428;-8.436;2022-09-30T02:48:41;100553.19;;;10.59;100.00
61318;BME280;47201;40.428;-8.436;2022-09-30T02:50:49;100546.16;;;10.66;100.00
61318;BME280;47201;40.428;-8.436;2022-09-30T02:59:29;100537.47;;;10.68;100.00
61318;BME280;47201;40.428;-8.436;2022-09-30T03:01:30;100540.94;;;10.69;100.00
61318;BME280;47201;40.428;-8.436;2022-09-30T03:03:34;100539.22;;;10.65;100.00
61318;BME280;47201;40.428;-8.436;2022-09-30T03:05:36;100531.41;;;10.55;100.00
61318;BME280;47201;40.428;-8.436;2022-09-30T03:07:37;100527.06;;;10.51;100.00
61318;BME280;47201;40.428;-8.436;2022-09-30T03:09:38;100524.50;;;10.37;100.00
61318;BME280;47201;40.428;-8.436;2022-09-30T03:11:39;100521.88;;;10.34;100.00
61318;BME280;47201;40.428;-8.436;2022-09-30T03:18:52;100521.81;;;10.54;100.00
61318;BME280;47201;40.428;-8.436;2022-09-30T03:21:06;100518.34;;;10.51;100.00
61318;BME280;47201;40.428;-8.436;2022-09-30T03:23:34;100517.50;;;10.47;100.00
61318;BME280;47201;40.428;-8.436;2022-09-30T03:25:54;100501.84;;;10.39;100.00
61318;BME280;47201;40.428;-8.436;2022-09-30T03:28:33;100506.16;;;10.51;100.00
61318;BME280;47201;40.428;-8.436;2022-09-30T03:33:09;100505.34;;;10.40;100.00
61318;BME280;47201;40.428;-8.436;2022-09-30T03:40:14;100506.22;;;10.39;100.00
61318;BME280;47201;40.428;-8.436;2022-09-30T03:42:43;100509.69;;;10.41;100.00
61318;BME280;47201;40.428;-8.436;2022-09-30T03:46:56;100505.34;;;10.34;100.00
61318;BME280;47201;40.428;-8.436;2022-09-30T03:49:06;100525.38;;;10.28;100.00
61318;BME280;47201;40.428;-8.436;2022-09-30T03:51:08;100532.34;;;10.28;100.00
61318;BME280;47201;40.428;-8.436;2022-09-30T03:53:10;100534.09;;;10.38;100.00
61318;BME280;47201;40.428;-8.436;2022-09-30T03:55:14;100538.41;;;10.48;100.00
61318;BME280;47201;40.428;-8.436;2022-09-30T03:57:16;100552.38;;;10.44;100.00
61318;BME280;47201;40.428;-8.436;2022-09-30T03:59:25;100555.81;;;10.36;100.00
61318;BME280;47201;40.428;-8.436;2022-09-30T04:01:27;100550.63;;;10.23;100.00
61318;BME280;47201;40.428;-8.436;2022-09-30T04:03:28;100550.69;;;10.15;100.00
61318;BME280;47201;40.428;-8.436;2022-09-30T04:05:29;100551.53;;;10.14;100.00
61318;BME280;47201;40.428;-8.436;2022-09-30T04:07:30;100548.06;;;10.11;100.00
61318;BME280;47201;40.428;-8.436;2022-09-30T04:09:30;100551.53;;;10.11;100.00
61318;BME280;47201;40.428;-8.436;2022-09-30T04:11:31;100556.78;;;10.05;100.00
61318;BME280;47201;40.428;-8.436;2022-09-30T04:13:32;100555.94;;;9.94;100.00
61318;BME280;47201;40.428;-8.436;2022-09-30T04:15:34;100548.97;;;9.88;100.00
61318;BME280;47201;40.428;-8.436;2022-09-30T04:17:34;100555.06;;;9.90;100.00
61318;BME280;47201;40.428;-8.436;2022-09-30T04:19:35;100553.31;;;9.88;100.00
61318;BME280;47201;40.428;-8.436;2022-09-30T04:21:39;100559.41;;;9.90;100.00
61318;BME280;47201;40.428;-8.436;2022-09-30T04:23:40;100556.78;;;9.94;100.00
61318;BME280;47201;40.428;-8.436;2022-09-30T04:25:41;100556.78;;;9.91;100.00
61318;BME280;47201;40.428;-8.436;2022-09-30T04:27:42;100556.78;;;9.94;100.00
61318;BME280;47201;40.428;-8.436;2022-09-30T04:29:43;100561.13;;;9.97;100.00
61318;BME280;47201;40.428;-8.436;2022-09-30T04:31:43;100549.81;;;9.93;100.00
61318;BME280;47201;40.428;-8.436;2022-09-30T04:33:44;100555.91;;;9.83;100.00
61318;BME280;47201;40.428;-8.436;2022-09-30T04:35:45;100556.81;;;9.74;100.00
61318;BME280;47201;40.428;-8.436;2022-09-30T04:37:46;100549.00;;;9.66;100.00
61318;BME280;47201;40.428;-8.436;2022-09-30T04:39:47;100554.19;;;9.65;100.00
61318;BME280;47201;40.428;-8.436;2022-09-30T04:41:47;100564.66;;;9.62;100.00
61318;BME280;47201;40.428;-8.436;2022-09-30T04:43:48;100564.63;;;9.69;100.00
61318;BME280;47201;40.428;-8.436;2022-09-30T04:45:50;100569.88;;;9.74;100.00
61318;BME280;47201;40.428;-8.436;2022-09-30T04:47:55;100575.97;;;9.81;100.00
61318;BME280;47201;40.428;-8.436;2022-09-30T04:49:55;100572.50;;;9.82;100.00
61318;BME280;47201;40.428;-8.436;2022-09-30T04:51:56;100572.47;;;9.94;100.00
61318;BME280;47201;40.428;-8.436;2022-09-30T04:53:57;100577.69;;;10.04;100.00
61318;BME280;47201;40.428;-8.436;2022-09-30T04:55:59;100569.84;;;9.94;100.00
61318;BME280;47201;40.428;-8.436;2022-09-30T04:58:00;100589.88;;;9.83;100.00
61318;BME280;47201;40.428;-8.436;2022-09-30T05:00:02;100590.75;;;9.88;100.00
61318;BME280;47201;40.428;-8.436;2022-09-30T05:02:03;100606.41;;;9.93;100.00
61318;BME280;47201;40.428;-8.436;2022-09-30T05:04:04;100607.25;;;10.09;100.00
61318;BME280;47201;40.428;-8.436;2022-09-30T05:06:06;100609.88;;;10.03;100.00
61318;BME280;47201;40.428;-8.436;2022-09-30T05:08:06;100617.75;;;9.96;100.00
61318;BME280;47201;40.428;-8.436;2022-09-30T05:10:08;100620.34;;;9.87;100.00
61318;BME280;47201;40.428;-8.436;2022-09-30T05:12:10;100624.66;;;9.76;100.00
61318;BME280;47201;40.428;-8.436;2022-09-30T05:14:10;100623.81;;;9.64;100.00
61318;BME280;47201;40.428;-8.436;2022-09-30T05:16:12;100631.63;;;9.61;100.00
61318;BME280;47201;40.428;-8.436;2022-09-30T05:18:13;100634.22;;;9.55;100.00
61318;BME280;47201;40.428;-8.436;2022-09-30T05:20:14;100634.25;;;9.53;100.00
61318;BME280;47201;40.428;-8.436;2022-09-30T05:22:14;100632.50;;;9.52;100.00
61318;BME280;47201;40.428;-8.436;2022-09-30T05:24:15;100635.97;;;9.58;100.00
61318;BME280;47201;40.428;-8.436;2022-09-30T05:26:16;100636.84;;;9.58;100.00
61318;BME280;47201;40.428;-8.436;2022-09-30T05:28:17;100645.53;;;9.48;100.00
61318;BME280;47201;40.428;-8.436;2022-09-30T05:30:18;100649.00;;;9.44;100.00
61318;BME280;47201;40.428;-8.436;2022-09-30T05:32:19;100652.47;;;9.38;100.00
61318;BME280;47201;40.428;-8.436;2022-09-30T05:34:21;100662.03;;;9.33;100.00
61318;BME280;47201;40.428;-8.436;2022-09-30T05:36:22;100663.75;;;9.26;100.00
61318;BME280;47201;40.428;-8.436;2022-09-30T05:38:22;100663.72;;;9.18;100.00
61318;BME280;47201;40.428;-8.436;2022-09-30T05:40:23;100673.28;;;9.18;100.00
61318;BME280;47201;40.428;-8.436;2022-09-30T05:42:24;100668.94;;;9.20;100.00
61318;BME280;47201;40.428;-8.436;2022-09-30T05:44:24;100678.50;;;9.21;100.00
61318;BME280;47201;40.428;-8.436;2022-09-30T05:46:25;100675.91;;;9.24;100.00
61318;BME280;47201;40.428;-8.436;2022-09-30T05:48:26;100672.41;;;9.20;100.00
61318;BME280;47201;40.428;-8.436;2022-09-30T05:50:27;100678.50;;;9.24;100.00
61318;BME280;47201;40.428;-8.436;2022-09-30T05:52:28;100680.22;;;9.14;100.00
61318;BME280;47201;40.428;-8.436;2022-09-30T05:54:28;100693.19;;;8.97;100.00
61318;BME280;47201;40.428;-8.436;2022-09-30T05:56:29;100694.84;;;8.81;100.00
61318;BME280;47201;40.428;-8.436;2022-09-30T05:58:30;100698.22;;;8.68;100.00
61318;BME280;47201;40.428;-8.436;2022-09-30T06:00:30;100693.84;;;8.56;100.00
61318;BME280;47201;40.428;-8.436;2022-09-30T06:02:31;100687.63;;;8.45;100.00
61318;BME280;47201;40.428;-8.436;2022-09-30T06:04:32;100693.69;;;8.40;100.00
61318;BME280;47201;40.428;-8.436;2022-09-30T06:06:33;100702.38;;;8.39;100.00
61318;BME280;47201;40.428;-8.436;2022-09-30T06:08:34;100697.09;;;8.30;100.00
61318;BME280;47201;40.428;-8.436;2022-09-30T06:10:35;100702.22;;;8.21;100.00
61318;BME280;47201;40.428;-8.436;2022-09-30T06:12:35;100700.41;;;8.14;100.00
61318;BME280;47201;40.428;-8.436;2022-09-30T06:14:37;100701.25;;;8.11;100.00
61318;BME280;47201;40.428;-8.436;2022-09-30T06:16:38;100702.94;;;8.03;100.00
61318;BME280;47201;40.428;-8.436;2022-09-30T06:18:39;100706.34;;;7.97;100.00
61318;BME280;47201;40.428;-8.436;2022-09-30T06:20:40;100712.34;;;7.90;100.00
61318;BME280;47201;40.428;-8.436;2022-09-30T06:22:41;100721.91;;;7.88;100.00
61318;BME280;47201;40.428;-8.436;2022-09-30T06:24:44;100725.34;;;7.88;100.00
61318;BME280;47201;40.428;-8.436;2022-09-30T06:26:44;100719.41;;;8.02;100.00
61318;BME280;47201;40.428;-8.436;2022-09-30T06:28:45;100726.34;;;8.01;100.00
61318;BME280;47201;40.428;-8.436;2022-09-30T06:30:46;100728.13;;;8.05;100.00
61318;BME280;47201;40.428;-8.436;2022-09-30T06:32:47;100722.94;;;8.10;100.00
61318;BME280;47201;40.428;-8.436;2022-09-30T06:34:47;100722.94;;;8.08;100.00
61318;BME280;47201;40.428;-8.436;2022-09-30T06:36:48;100725.53;;;8.07;100.00
61318;BME280;47201;40.428;-8.436;2022-09-30T06:38:49;100726.41;;;8.07;100.00
61318;BME280;47201;40.428;-8.436;2022-09-30T06:40:53;100723.84;;;8.10;100.00
61318;BME280;47201;40.428;-8.436;2022-09-30T06:42:59;100731.66;;;8.14;100.00
61318;BME280;47201;40.428;-8.436;2022-09-30T06:45:00;100729.19;;;8.28;100.00
61318;BME280;47201;40.428;-8.436;2022-09-30T06:47:01;100732.69;;;8.34;100.00
61318;BME280;47201;40.428;-8.436;2022-09-30T06:49:02;100733.66;;;8.44;100.00
61318;BME280;47201;40.428;-8.436;2022-09-30T06:51:03;100731.16;;;8.55;100.00
61318;BME280;47201;40.428;-8.436;2022-09-30T06:53:06;100729.50;;;8.65;100.00
61318;BME280;47201;40.428;-8.436;2022-09-30T06:55:07;100732.09;;;8.66;100.00
61318;BME280;47201;40.428;-8.436;2022-09-30T06:57:08;100736.59;;;8.91;100.00
61318;BME280;47201;40.428;-8.436;2022-09-30T06:59:10;100738.53;;;9.32;100.00
61318;BME280;47201;40.428;-8.436;2022-09-30T07:01:11;100736.91;;;9.56;100.00
61318;BME280;47201;40.428;-8.436;2022-09-30T07:03:22;100748.19;;;9.55;100.00
61318;BME280;47201;40.428;-8.436;2022-09-30T07:05:24;100742.09;;;9.51;100.00
61318;BME280;47201;40.428;-8.436;2022-09-30T07:07:25;100746.44;;;9.49;100.00
61318;BME280;47201;40.428;-8.436;2022-09-30T07:09:26;100742.97;;;9.56;100.00
61318;BME280;47201;40.428;-8.436;2022-09-30T07:11:27;100742.09;;;9.59;100.00
61318;BME280;47201;40.428;-8.436;2022-09-30T07:13:27;100748.28;;;9.86;100.00
61318;BME280;47201;40.428;-8.436;2022-09-30T07:15:28;100738.69;;;11.01;100.00
61318;BME280;47201;40.428;-8.436;2022-09-30T07:17:29;100742.81;;;12.77;100.00
61318;BME280;47201;40.428;-8.436;2022-09-30T07:19:30;100744.50;;;14.22;100.00
61318;BME280;47201;40.428;-8.436;2022-09-30T07:21:31;100743.78;;;15.56;100.00
61318;BME280;47201;40.428;-8.436;2022-09-30T07:23:32;100738.63;;;16.98;100.00
61318;BME280;47201;40.428;-8.436;2022-09-30T07:25:32;100751.31;;;18.33;100.00
61318;BME280;47201;40.428;-8.436;2022-09-30T07:27:33;100754.66;;;19.39;100.00
61318;BME280;47201;40.428;-8.436;2022-09-30T07:29:34;100756.69;;;20.45;100.00
61318;BME280;47201;40.428;-8.436;2022-09-30T07:31:35;100753.13;;;21.48;100.00
61318;BME280;47201;40.428;-8.436;2022-09-30T07:33:37;100754.78;;;22.25;100.00
61318;BME280;47201;40.428;-8.436;2022-09-30T07:35:38;100763.09;;;23.07;67.11
61318;BME280;47201;40.428;-8.436;2022-09-30T07:37:38;100767.47;;;23.25;65.18
61318;BME280;47201;40.428;-8.436;2022-09-30T07:39:44;100781.16;;;24.01;62.99
61318;BME280;47201;40.428;-8.436;2022-09-30T07:41:45;100786.63;;;24.30;59.74
61318;BME280;47201;40.428;-8.436;2022-09-30T07:43:46;100792.06;;;24.59;54.94
61318;BME280;47201;40.428;-8.436;2022-09-30T07:45:47;100799.19;;;25.05;53.62
61318;BME280;47201;40.428;-8.436;2022-09-30T07:47:48;100797.78;;;25.42;51.94
61318;BME280;47201;40.428;-8.436;2022-09-30T07:49:49;100799.28;;;25.75;49.95
61318;BME280;47201;40.428;-8.436;2022-09-30T07:51:52;100789.09;;;26.50;50.85
61318;BME280;47201;40.428;-8.436;2022-09-30T07:53:55;100804.41;;;27.14;44.29
61318;BME280;47201;40.428;-8.436;2022-09-30T07:55:56;100806.66;;;27.20;41.24
61318;BME280;47201;40.428;-8.436;2022-09-30T07:57:57;100810.06;;;27.74;40.56
61318;BME280;47201;40.428;-8.436;2022-09-30T07:59:57;100808.66;;;28.18;39.38
61318;BME280;47201;40.428;-8.436;2022-09-30T08:01:58;100811.50;;;28.28;38.12
61318;BME280;47201;40.428;-8.436;2022-09-30T08:04:01;100820.41;;;28.77;37.95
61318;BME280;47201;40.428;-8.436;2022-09-30T08:06:07;100817.53;;;29.03;37.36
61318;BME280;47201;40.428;-8.436;2022-09-30T08:08:09;100822.34;;;29.33;35.84
61318;BME280;47201;40.428;-8.436;2022-09-30T08:10:09;100827.00;;;29.31;34.88
61318;BME280;47201;40.428;-8.436;2022-09-30T08:12:10;100828.78;;;29.08;35.57
61318;BME280;47201;40.428;-8.436;2022-09-30T08:14:16;100826.56;;;29.02;35.80
61318;BME280;47201;40.428;-8.436;2022-09-30T08:16:18;100834.53;;;29.03;35.93
61318;BME280;47201;40.428;-8.436;2022-09-30T08:18:19;100838.81;;;29.06;35.83
61318;BME280;47201;40.428;-8.436;2022-09-30T08:20:19;100839.38;;;29.45;35.27
61318;BME280;47201;40.428;-8.436;2022-09-30T08:22:20;100840.22;;;29.46;35.42
61318;BME280;47201;40.428;-8.436;2022-09-30T08:24:24;100837.56;;;30.23;34.04
61318;BME280;47201;40.428;-8.436;2022-09-30T08:26:25;100841.75;;;30.60;32.77
61318;BME280;47201;40.428;-8.436;2022-09-30T08:28:26;100824.72;;;28.91;33.89
61318;BME280;47201;40.428;-8.436;2022-09-30T08:30:27;100840.22;;;28.52;35.37
61318;BME280;47201;40.428;-8.436;2022-09-30T08:32:30;100844.84;;;28.74;35.72
61318;BME280;47201;40.428;-8.436;2022-09-30T08:34:36;100839.84;;;29.73;33.57
61318;BME280;47201;40.428;-8.436;2022-09-30T08:36:37;100839.50;;;29.43;33.09
61318;BME280;47201;40.428;-8.436;2022-09-30T08:38:40;100845.97;;;28.83;34.89
61318;BME280;47201;40.428;-8.436;2022-09-30T08:41:01;100859.53;;;28.57;34.75
61318;BME280;47201;40.428;-8.436;2022-09-30T08:43:23;100862.00;;;28.60;34.96
61318;BME280;47201;40.428;-8.436;2022-09-30T08:50:34;100870.31;;;30.63;32.33
61318;BME280;47201;40.428;-8.436;2022-09-30T08:52:46;100863.94;;;30.64;32.05
61318;BME280;47201;40.428;-8.436;2022-09-30T08:54:49;100872.06;;;29.74;33.41
61318;BME280;47201;40.428;-8.436;2022-09-30T08:56:52;100862.97;;;29.53;33.41
61318;BME280;47201;40.428;-8.436;2022-09-30T08:58:57;100856.44;;;29.21;34.27
61318;BME280;47201;40.428;-8.436;2022-09-30T09:01:22;100867.81;;;29.25;34.10
61318;BME280;47201;40.428;-8.436;2022-09-30T09:03:27;100862.06;;;29.07;34.57
61318;BME280;47201;40.428;-8.436;2022-09-30T09:08:10;100882.91;;;28.68;34.51
61318;BME280;47201;40.428;-8.436;2022-09-30T09:10:45;100878.16;;;27.34;37.25
61318;BME280;47201;40.428;-8.436;2022-09-30T09:15:21;100871.84;;;30.33;31.79
61318;BME280;47201;40.428;-8.436;2022-09-30T09:17:53;100875.56;;;31.18;30.32
61318;BME280;47201;40.428;-8.436;2022-09-30T09:20:15;100881.59;;;30.68;30.69
61318;BME280;47201;40.428;-8.436;2022-09-30T09:22:16;100873.75;;;30.53;31.25
61318;BME280;47201;40.428;-8.436;2022-09-30T09:24:28;100888.75;;;31.11;30.73
61318;BME280;47201;40.428;-8.436;2022-09-30T09:26:35;100887.13;;;31.82;29.33
61318;BME280;47201;40.428;-8.436;2022-09-30T09:30:48;100885.16;;;32.45;27.09
61318;BME280;47201;40.428;-8.436;2022-09-30T09:32:54;100893.28;;;31.94;27.72
61318;BME280;47201;40.428;-8.436;2022-09-30T09:34:59;100889.00;;;30.76;29.40
61318;BME280;47201;40.428;-8.436;2022-09-30T09:40:08;100892.03;;;31.67;27.33
61318;BME280;47201;40.428;-8.436;2022-09-30T09:42:33;100887.38;;;31.48;28.27
61318;BME280;47201;40.428;-8.436;2022-09-30T09:44:43;100886.34;;;32.11;27.69
61318;BME280;47201;40.428;-8.436;2022-09-30T09:46:52;100888.00;;;32.53;26.77
61318;BME280;47201;40.428;-8.436;2022-09-30T09:51:33;100879.75;;;31.32;28.31
61318;BME280;47201;40.428;-8.436;2022-09-30T09:53:52;100889.44;;;31.35;28.01
61318;BME280;47201;40.428;-8.436;2022-09-30T09:55:54;100889.69;;;31.31;28.01
61318;BME280;47201;40.428;-8.436;2022-09-30T09:58:11;100889.31;;;30.50;28.25
61318;BME280;47201;40.428;-8.436;2022-09-30T10:00:24;100883.53;;;31.20;26.76
61318;BME280;47201;40.428;-8.436;2022-09-30T10:02:43;100886.25;;;31.20;28.34
61318;BME280;47201;40.428;-8.436;2022-09-30T10:04:47;100877.06;;;30.90;28.33
61318;BME280;47201;40.428;-8.436;2022-09-30T10:07:12;100886.69;;;30.71;28.33
61318;BME280;47201;40.428;-8.436;2022-09-30T10:11:26;100881.78;;;31.40;27.25
61318;BME280;47201;40.428;-8.436;2022-09-30T10:13:41;100884.25;;;31.22;27.46
61318;BME280;47201;40.428;-8.436;2022-09-30T10:15:43;100888.03;;;30.98;27.04
61318;BME280;47201;40.428;-8.436;2022-09-30T10:17:49;100871.97;;;30.75;27.92
61318;BME280;47201;40.428;-8.436;2022-09-30T10:19:53;100882.56;;;30.67;27.01
61318;BME280;47201;40.428;-8.436;2022-09-30T10:24:28;100893.94;;;30.92;26.05
61318;BME280;47201;40.428;-8.436;2022-09-30T10:26:43;100886.53;;;31.47;25.53
61318;BME280;47201;40.428;-8.436;2022-09-30T10:31:02;100880.31;;;32.97;23.21
61318;BME280;47201;40.428;-8.436;2022-09-30T10:33:14;100895.25;;;33.68;23.50
61318;BME280;47201;40.428;-8.436;2022-09-30T10:35:19;100893.53;;;33.20;24.00
61318;BME280;47201;40.428;-8.436;2022-09-30T10:37:23;100897.69;;;32.46;24.07
61318;BME280;47201;40.428;-8.436;2022-09-30T10:39:26;100903.94;;;32.36;23.97
61318;BME280;47201;40.428;-8.436;2022-09-30T10:41:30;100898.25;;;33.18;23.07
61318;BME280;47201;40.428;-8.436;2022-09-30T10:43:41;100901.84;;;32.89;23.20
61318;BME280;47201;40.428;-8.436;2022-09-30T10:45:43;100899.97;;;32.99;23.72
61318;BME280;47201;40.428;-8.436;2022-09-30T10:47:50;100893.88;;;33.92;22.91
61318;BME280;47201;40.428;-8.436;2022-09-30T10:49:58;100897.31;;;33.94;22.18
61318;BME280;47201;40.428;-8.436;2022-09-30T10:52:03;100896.56;;;34.20;21.49
61318;BME280;47201;40.428;-8.436;2022-09-30T10:54:05;100895.59;;;34.57;21.50
61318;BME280;47201;40.428;-8.436;2022-09-30T10:56:05;100890.78;;;34.87;21.62
61318;BME280;47201;40.428;-8.436;2022-09-30T10:58:40;100893.66;;;34.86;21.32
61318;BME280;47201;40.428;-8.436;2022-09-30T11:00:43;100904.47;;;33.76;22.05
61318;BME280;47201;40.428;-8.436;2022-09-30T11:02:53;100912.06;;;33.15;22.64
61318;BME280;47201;40.428;-8.436;2022-09-30T11:05:25;100913.88;;;33.91;22.09
61318;BME280;47201;40.428;-8.436;2022-09-30T11:07:43;100902.47;;;33.88;21.86
61318;BME280;47201;40.428;-8.436;2022-09-30T11:12:29;100885.69;;;33.17;22.77
61318;BME280;47201;40.428;-8.436;2022-09-30T11:14:46;100887.91;;;33.51;23.17
61318;BME280;47201;40.428;-8.436;2022-09-30T11:17:05;100891.78;;;33.86;22.30
61318;BME280;47201;40.428;-8.436;2022-09-30T11:26:32;100895.84;;;33.62;22.73
61318;BME280;47201;40.428;-8.436;2022-09-30T11:35:53;100897.47;;;33.83;21.94
61318;BME280;47201;40.428;-8.436;2022-09-30T11:38:21;100901.03;;;33.83;21.94
61318;BME280;47201;40.428;-8.436;2022-09-30T11:40:34;100900.19;;;34.11;22.60
61318;BME280;47201;40.428;-8.436;2022-09-30T11:42:44;100894.19;;;34.17;22.27
61318;BME280;47201;40.428;-8.436;2022-09-30T11:44:55;100890.72;;;32.53;24.38
61318;BME280;47201;40.428;-8.436;2022-09-30T11:54:04;100881.84;;;31.07;26.04
61318;BME280;47201;40.428;-8.436;2022-09-30T11:58:32;100873.06;;;29.04;28.93
61318;BME280;47201;40.428;-8.436;2022-09-30T12:00:38;100884.16;;;27.24;32.10
61318;BME280;47201;40.428;-8.436;2022-09-30T12:02:44;100881.09;;;25.79;34.39
61318;BME280;47201;40.428;-8.436;2022-09-30T12:04:47;100876.47;;;23.99;38.19
61318;BME280;47201;40.428;-8.436;2022-09-30T12:06:57;100878.03;;;22.83;40.80
61318;BME280;47201;40.428;-8.436;2022-09-30T12:09:15;100879.56;;;22.52;41.95
61318;BME280;47201;40.428;-8.436;2022-09-30T12:11:20;100879.00;;;21.88;45.11
61318;BME280;47201;40.428;-8.436;2022-09-30T12:13:34;100881.44;;;21.74;46.10
61318;BME280;47201;40.428;-8.436;2022-09-30T12:15:39;100883.88;;;21.78;45.84
61318;BME280;47201;40.428;-8.436;2022-09-30T12:17:47;100879.06;;;21.86;45.34
61318;BME280;47201;40.428;-8.436;2022-09-30T12:19:50;100871.66;;;21.93;45.07
61318;BME280;47201;40.428;-8.436;2022-09-30T12:22:19;100867.75;;;21.62;46.23